sensor_id;sensor_type;location;lat;lon;timestamp;pressure;altitude;pressure_sealevel;temperature;humidity
25560;BME280;13450;49.374;8.584;2022-12-29T00:01:42;99990.44;;;8.79;100.00
25560;BME280;13450;49.374;8.584;2022-12-29T00:04:11;99982.44;;;8.79;100.00
25560;BME280;13450;49.374;8.584;2022-12-29T00:06:39;99984.53;;;8.84;100.00
25560;BME280;13450;49.374;8.584;2022-12-29T00:09:04;99982.72;;;8.84;100.00
25560;BME280;13450;49.374;8.584;2022-12-29T00:11:30;99973.34;;;8.88;100.00
25560;BME280;13450;49.374;8.584;2022-12-29T00:13:55;99976.44;;;8.92;100.00
25560;BME280;13450;49.374;8.584;2022-12-29T00:16:44;99972.75;;;8.93;100.00
25560;BME280;13450;49.374;8.584;2022-12-29T00:19:12;99977.72;;;8.96;100.00
25560;BME280;13450;49.374;8.584;2022-12-29T00:21:57;99964.75;;;8.93;100.00
25560;BME280;13450;49.374;8.584;2022-12-29T00:24:42;99962.09;;;8.93;100.00
25560;BME280;13450;49.374;8.584;2022-12-29T00:27:20;99966.78;;;8.91;100.00
25560;BME280;13450;49.374;8.584;2022-12-29T00:30:24;99963.69;;;8.87;100.00
25560;BME280;13450;49.374;8.584;2022-12-29T00:33:13;99967.16;;;8.88;100.00
25560;BME280;13450;49.374;8.584;2022-12-29T00:36:01;99971.28;;;8.90;100.00
25560;BME280;13450;49.374;8.584;2022-12-29T00:38:28;99974.44;;;8.94;100.00
25560;BME280;13450;49.374;8.584;2022-12-29T00:41:12;99980.41;;;8.96;100.00
25560;BME280;13450;49.374;8.584;2022-12-29T00:43:56;99971.38;;;8.97;100.00
25560;BME280;13450;49.374;8.584;2022-12-29T00:46:34;99977.00;;;9.02;100.00
25560;BME280;13450;49.374;8.584;2022-12-29T00:49:00;99971.94;;;9.08;100.00
25560;BME280;13450;49.374;8.584;2022-12-29T00:51:45;99971.75;;;9.09;100.00
25560;BME280;13450;49.374;8.584;2022-12-29T00:54:11;99968.88;;;9.11;100.00
25560;BME280;13450;49.374;8.584;2022-12-29T00:56:36;99980.09;;;9.21;100.00
25560;BME280;13450;49.374;8.584;2022-12-29T00:59:03;99983.56;;;9.37;100.00
25560;BME280;13450;49.374;8.584;2022-12-29T01:01:32;99988.53;;;9.40;100.00
25560;BME280;13450;49.374;8.584;2022-12-29T01:03:57;99991.66;;;9.65;100.00
25560;BME280;13450;49.374;8.584;2022-12-29T01:06:23;99978.19;;;9.74;100.00
25560;BME280;13450;49.374;8.584;2022-12-29T01:08:48;99983.97;;;9.77;100.00
25560;BME280;13450;49.374;8.584;2022-12-29T01:11:37;99986.53;;;9.86;100.00
25560;BME280;13450;49.374;8.584;2022-12-29T01:14:03;99985.75;;;9.92;100.00
25560;BME280;13450;49.374;8.584;2022-12-29T01:16:29;99980.81;;;9.89;100.00
25560;BME280;13450;49.374;8.584;2022-12-29T01:18:55;99982.06;;;9.93;100.00
25560;BME280;13450;49.374;8.584;2022-12-29T01:21:20;99978.38;;;9.94;100.00
25560;BME280;13450;49.374;8.584;2022-12-29T01:23:46;99984.16;;;9.98;100.00
25560;BME280;13450;49.374;8.584;2022-12-29T01:26:15;99975.09;;;9.99;100.00
25560;BME280;13450;49.374;8.584;2022-12-29T01:28:41;99976.78;;;10.00;100.00
25560;BME280;13450;49.374;8.584;2022-12-29T01:31:11;99969.06;;;10.12;100.00
25560;BME280;13450;49.374;8.584;2022-12-29T01:33:37;99965.22;;;10.21;100.00
25560;BME280;13450;49.374;8.584;2022-12-29T01:36:04;99988.19;;;10.66;100.00
25560;BME280;13450;49.374;8.584;2022-12-29T01:38:30;99963.31;;;10.72;100.00
25560;BME280;13450;49.374;8.584;2022-12-29T01:40:58;99966.00;;;10.79;100.00
25560;BME280;13450;49.374;8.584;2022-12-29T01:49:03;99966.84;;;10.79;100.00
25560;BME280;13450;49.374;8.584;2022-12-29T01:51:30;99958.41;;;10.82;100.00
25560;BME280;13450;49.374;8.584;2022-12-29T01:53:58;99977.97;;;10.83;100.00
25560;BME280;13450;49.374;8.584;2022-12-29T01:56:27;99977.78;;;10.84;100.00
25560;BME280;13450;49.374;8.584;2022-12-29T01:59:05;99985.97;;;10.76;100.00
25560;BME280;13450;49.374;8.584;2022-12-29T02:01:33;99974.41;;;10.69;100.00
25560;BME280;13450;49.374;8.584;2022-12-29T02:03:59;99988.97;;;10.59;100.00
25560;BME280;13450;49.374;8.584;2022-12-29T02:06:49;99979.56;;;10.42;100.00
25560;BME280;13450;49.374;8.584;2022-12-29T02:09:17;99961.03;;;10.40;100.00
25560;BME280;13450;49.374;8.584;2022-12-29T02:11:42;99979.31;;;10.37;100.00
25560;BME280;13450;49.374;8.584;2022-12-29T02:14:09;99958.16;;;10.42;100.00
25560;BME280;13450;49.374;8.584;2022-12-29T02:19:37;99959.06;;;10.49;100.00
25560;BME280;13450;49.374;8.584;2022-12-29T02:30:42;99961.66;;;10.71;100.00
25560;BME280;13450;49.374;8.584;2022-12-29T02:33:23;99969.09;;;10.76;100.00
25560;BME280;13450;49.374;8.584;2022-12-29T02:36:32;99970.31;;;10.73;100.00
25560;BME280;13450;49.374;8.584;2022-12-29T02:42:13;99959.78;;;10.71;100.00
25560;BME280;13450;49.374;8.584;2022-12-29T02:47:55;99957.94;;;10.72;100.00
25560;BME280;13450;49.374;8.584;2022-12-29T02:50:33;99945.22;;;10.74;100.00
25560;BME280;13450;49.374;8.584;2022-12-29T02:53:02;99953.88;;;10.76;100.00
25560;BME280;13450;49.374;8.584;2022-12-29T02:55:29;99956.31;;;10.71;100.00
25560;BME280;13450;49.374;8.584;2022-12-29T02:58:18;99941.06;;;10.71;100.00
25560;BME280;13450;49.374;8.584;2022-12-29T03:09:17;99950.09;;;10.64;100.00
25560;BME280;13450;49.374;8.584;2022-12-29T03:12:29;99938.53;;;10.56;100.00
25560;BME280;13450;49.374;8.584;2022-12-29T03:15:35;99935.22;;;10.54;100.00
25560;BME280;13450;49.374;8.584;2022-12-29T03:18:24;99932.97;;;10.51;100.00
25560;BME280;13450;49.374;8.584;2022-12-29T03:23:33;99922.63;;;10.48;100.00
25560;BME280;13450;49.374;8.584;2022-12-29T03:26:10;99925.69;;;10.45;100.00
25560;BME280;13450;49.374;8.584;2022-12-29T03:28:52;99918.03;;;10.42;100.00
25560;BME280;13450;49.374;8.584;2022-12-29T03:31:19;99916.81;;;10.38;100.00
25560;BME280;13450;49.374;8.584;2022-12-29T03:33:46;99907.09;;;10.37;100.00
25560;BME280;13450;49.374;8.584;2022-12-29T03:36:20;99904.84;;;10.33;100.00
25560;BME280;13450;49.374;8.584;2022-12-29T03:38:55;99905.84;;;10.32;100.00
25560;BME280;13450;49.374;8.584;2022-12-29T03:41:28;99906.25;;;10.29;100.00
25560;BME280;13450;49.374;8.584;2022-12-29T03:43:55;99901.31;;;10.33;100.00
25560;BME280;13450;49.374;8.584;2022-12-29T03:46:20;99889.59;;;10.34;100.00
25560;BME280;13450;49.374;8.584;2022-12-29T03:48:45;99891.47;;;10.33;100.00
25560;BME280;13450;49.374;8.584;2022-12-29T03:51:13;99882.41;;;10.34;100.00
25560;BME280;13450;49.374;8.584;2022-12-29T03:53:40;99884.25;;;10.34;100.00
25560;BME280;13450;49.374;8.584;2022-12-29T03:56:08;99883.44;;;10.33;100.00
25560;BME280;13450;49.374;8.584;2022-12-29T03:58:34;99866.38;;;10.34;100.00
25560;BME280;13450;49.374;8.584;2022-12-29T04:00:59;99866.19;;;10.36;100.00
25560;BME280;13450;49.374;8.584;2022-12-29T04:03:25;99858.16;;;10.36;100.00
25560;BME280;13450;49.374;8.584;2022-12-29T04:05:50;99864.94;;;10.39;100.00
25560;BME280;13450;49.374;8.584;2022-12-29T04:08:16;99849.53;;;10.41;100.00
25560;BME280;13450;49.374;8.584;2022-12-29T04:10:41;99859.84;;;10.44;100.00
25560;BME280;13450;49.374;8.584;2022-12-29T04:13:06;99857.00;;;10.45;100.00
25560;BME280;13450;49.374;8.584;2022-12-29T04:15:32;99857.59;;;10.48;100.00
25560;BME280;13450;49.374;8.584;2022-12-29T04:18:02;99854.94;;;10.48;100.00
25560;BME280;13450;49.374;8.584;2022-12-29T04:20:27;99849.38;;;10.49;100.00
25560;BME280;13450;49.374;8.584;2022-12-29T04:23:15;99851.03;;;10.50;100.00
25560;BME280;13450;49.374;8.584;2022-12-29T04:25:41;99853.31;;;10.53;100.00
25560;BME280;13450;49.374;8.584;2022-12-29T04:28:12;99860.31;;;10.54;100.00
25560;BME280;13450;49.374;8.584;2022-12-29T04:30:37;99854.75;;;10.56;100.00
25560;BME280;13450;49.374;8.584;2022-12-29T04:33:02;99864.88;;;10.61;100.00
25560;BME280;13450;49.374;8.584;2022-12-29T04:35:27;99855.81;;;10.62;100.00
25560;BME280;13450;49.374;8.584;2022-12-29T04:37:53;99860.38;;;10.68;100.00
25560;BME280;13450;49.374;8.584;2022-12-29T04:40:21;99855.66;;;10.70;100.00
25560;BME280;13450;49.374;8.584;2022-12-29T04:42:46;99843.53;;;10.74;100.00
25560;BME280;13450;49.374;8.584;2022-12-29T04:45:11;99853.19;;;10.75;100.00
25560;BME280;13450;49.374;8.584;2022-12-29T04:47:37;99849.50;;;10.76;100.00
25560;BME280;13450;49.374;8.584;2022-12-29T04:50:03;99863.06;;;10.75;100.00
25560;BME280;13450;49.374;8.584;2022-12-29T04:52:28;99858.75;;;10.73;100.00
25560;BME280;13450;49.374;8.584;2022-12-29T04:54:53;99858.34;;;10.77;100.00
25560;BME280;13450;49.374;8.584;2022-12-29T04:57:19;99860.81;;;10.78;100.00
25560;BME280;13450;49.374;8.584;2022-12-29T04:59:44;99847.44;;;10.78;100.00
25560;BME280;13450;49.374;8.584;2022-12-29T05:02:09;99854.22;;;10.74;100.00
25560;BME280;13450;49.374;8.584;2022-12-29T05:04:35;99857.53;;;10.76;100.00
25560;BME280;13450;49.374;8.584;2022-12-29T05:07:00;99865.34;;;10.78;100.00
25560;BME280;13450;49.374;8.584;2022-12-29T05:09:25;99860.38;;;10.75;100.00
25560;BME280;13450;49.374;8.584;2022-12-29T05:11:50;99871.09;;;10.75;100.00
25560;BME280;13450;49.374;8.584;2022-12-29T05:14:18;99869.44;;;10.73;100.00
25560;BME280;13450;49.374;8.584;2022-12-29T05:16:46;99872.13;;;10.73;100.00
25560;BME280;13450;49.374;8.584;2022-12-29T05:19:11;99870.28;;;10.74;100.00
25560;BME280;13450;49.374;8.584;2022-12-29T05:21:39;99871.28;;;10.73;100.00
25560;BME280;13450;49.374;8.584;2022-12-29T05:24:04;99867.63;;;10.74;100.00
25560;BME280;13450;49.374;8.584;2022-12-29T05:26:30;99858.34;;;10.77;100.00
25560;BME280;13450;49.374;8.584;2022-12-29T05:28:57;99849.50;;;10.76;100.00
25560;BME280;13450;49.374;8.584;2022-12-29T05:31:23;99864.50;;;10.77;100.00
25560;BME280;13450;49.374;8.584;2022-12-29T05:33:49;99864.31;;;10.79;100.00
25560;BME280;13450;49.374;8.584;2022-12-29T05:36:17;99851.78;;;10.79;100.00
25560;BME280;13450;49.374;8.584;2022-12-29T05:38:43;99845.59;;;10.79;100.00
25560;BME280;13450;49.374;8.584;2022-12-29T05:41:09;99851.97;;;10.78;100.00
25560;BME280;13450;49.374;8.584;2022-12-29T05:43:35;99860.19;;;10.76;100.00
25560;BME280;13450;49.374;8.584;2022-12-29T05:46:01;99863.91;;;10.75;100.00
25560;BME280;13450;49.374;8.584;2022-12-29T05:48:27;99854.22;;;10.74;100.00
25560;BME280;13450;49.374;8.584;2022-12-29T05:50:53;99855.22;;;10.73;100.00
25560;BME280;13450;49.374;8.584;2022-12-29T05:53:18;99861.44;;;10.73;100.00
25560;BME280;13450;49.374;8.584;2022-12-29T05:55:46;99858.94;;;10.72;100.00
25560;BME280;13450;49.374;8.584;2022-12-29T05:58:11;99851.31;;;10.69;100.00
25560;BME280;13450;49.374;8.584;2022-12-29T06:00:37;99856.66;;;10.69;100.00
25560;BME280;13450;49.374;8.584;2022-12-29T06:03:04;99864.06;;;10.67;100.00
25560;BME280;13450;49.374;8.584;2022-12-29T06:05:30;99867.13;;;10.64;100.00
25560;BME280;13450;49.374;8.584;2022-12-29T06:07:55;99855.81;;;10.62;100.00
25560;BME280;13450;49.374;8.584;2022-12-29T06:10:20;99865.50;;;10.63;100.00
25560;BME280;13450;49.374;8.584;2022-12-29T06:12:46;99855.81;;;10.62;100.00
25560;BME280;13450;49.374;8.584;2022-12-29T06:15:12;99851.50;;;10.61;100.00
25560;BME280;13450;49.374;8.584;2022-12-29T06:17:38;99841.00;;;10.59;100.00
25560;BME280;13450;49.374;8.584;2022-12-29T06:20:03;99836.44;;;10.59;100.00
25560;BME280;13450;49.374;8.584;2022-12-29T06:22:29;99835.84;;;10.57;100.00
25560;BME280;13450;49.374;8.584;2022-12-29T06:24:54;99839.75;;;10.55;100.00
25560;BME280;13450;49.374;8.584;2022-12-29T06:27:22;99844.72;;;10.58;100.00
25560;BME280;13450;49.374;8.584;2022-12-29T06:29:48;99837.06;;;10.55;100.00
25560;BME280;13450;49.374;8.584;2022-12-29T06:32:15;99842.22;;;10.56;100.00
25560;BME280;13450;49.374;8.584;2022-12-29T06:34:40;99841.19;;;10.57;100.00
25560;BME280;13450;49.374;8.584;2022-12-29T06:37:11;99844.72;;;10.58;100.00
25560;BME280;13450;49.374;8.584;2022-12-29T06:39:36;99838.13;;;10.61;100.00
25560;BME280;13450;49.374;8.584;2022-12-29T06:42:02;99841.00;;;10.59;100.00
25560;BME280;13450;49.374;8.584;2022-12-29T06:44:27;99826.97;;;10.57;100.00
25560;BME280;13450;49.374;8.584;2022-12-29T06:46:53;99831.56;;;10.63;100.00
25560;BME280;13450;49.374;8.584;2022-12-29T06:49:22;99826.81;;;10.65;100.00
25560;BME280;13450;49.374;8.584;2022-12-29T06:51:47;99837.31;;;10.67;100.00
25560;BME280;13450;49.374;8.584;2022-12-29T06:54:13;99831.56;;;10.70;100.00
25560;BME280;13450;49.374;8.584;2022-12-29T06:56:41;99826.22;;;10.70;100.00
25560;BME280;13450;49.374;8.584;2022-12-29T06:59:09;99837.53;;;10.72;100.00
25560;BME280;13450;49.374;8.584;2022-12-29T07:01:34;99829.13;;;10.75;100.00
25560;BME280;13450;49.374;8.584;2022-12-29T07:04:03;99828.47;;;10.73;100.00
25560;BME280;13450;49.374;8.584;2022-12-29T07:06:29;99835.50;;;10.74;100.00
25560;BME280;13450;49.374;8.584;2022-12-29T07:08:54;99830.75;;;10.76;100.00
25560;BME280;13450;49.374;8.584;2022-12-29T07:11:21;99830.38;;;10.79;100.00
25560;BME280;13450;49.374;8.584;2022-12-29T07:13:46;99826.84;;;10.79;100.00
25560;BME280;13450;49.374;8.584;2022-12-29T07:16:12;99836.53;;;10.80;100.00
25560;BME280;13450;49.374;8.584;2022-12-29T07:18:37;99835.72;;;10.79;100.00
25560;BME280;13450;49.374;8.584;2022-12-29T07:21:03;99845.38;;;10.80;100.00
25560;BME280;13450;49.374;8.584;2022-12-29T07:23:29;99835.91;;;10.78;100.00
25560;BME280;13450;49.374;8.584;2022-12-29T07:26:05;99846.81;;;10.76;100.00
25560;BME280;13450;49.374;8.584;2022-12-29T07:28:30;99849.50;;;10.76;100.00
25560;BME280;13450;49.374;8.584;2022-12-29T07:30:59;99853.81;;;10.77;100.00
25560;BME280;13450;49.374;8.584;2022-12-29T07:33:25;99854.44;;;10.79;100.00
25560;BME280;13450;49.374;8.584;2022-12-29T07:35:50;99861.63;;;10.79;100.00
25560;BME280;13450;49.374;8.584;2022-12-29T07:38:15;99851.34;;;10.82;100.00
25560;BME280;13450;49.374;8.584;2022-12-29T07:40:42;99850.53;;;10.82;100.00
25560;BME280;13450;49.374;8.584;2022-12-29T07:43:07;99856.69;;;10.82;100.00
25560;BME280;13450;49.374;8.584;2022-12-29T07:45:32;99849.72;;;10.81;100.00
25560;BME280;13450;49.374;8.584;2022-12-29T07:47:57;99844.75;;;10.78;100.00
25560;BME280;13450;49.374;8.584;2022-12-29T07:50:23;99851.13;;;10.77;100.00
25560;BME280;13450;49.374;8.584;2022-12-29T07:52:48;99847.88;;;10.82;100.00
25560;BME280;13450;49.374;8.584;2022-12-29T07:55:15;99850.97;;;10.85;100.00
25560;BME280;13450;49.374;8.584;2022-12-29T07:57:41;99850.97;;;10.85;100.00
25560;BME280;13450;49.374;8.584;2022-12-29T08:00:09;99856.31;;;10.85;100.00
25560;BME280;13450;49.374;8.584;2022-12-29T08:02:35;99861.66;;;10.85;100.00
25560;BME280;13450;49.374;8.584;2022-12-29T08:05:03;99864.53;;;10.84;100.00
25560;BME280;13450;49.374;8.584;2022-12-29T08:07:31;99860.22;;;10.83;100.00
25560;BME280;13450;49.374;8.584;2022-12-29T08:09:56;99869.09;;;10.83;100.00
25560;BME280;13450;49.374;8.584;2022-12-29T08:12:22;99868.66;;;10.86;100.00
25560;BME280;13450;49.374;8.584;2022-12-29T08:14:48;99877.34;;;10.89;100.00
25560;BME280;13450;49.374;8.584;2022-12-29T08:17:13;99868.88;;;10.92;100.00
25560;BME280;13450;49.374;8.584;2022-12-29T08:19:41;99880.03;;;10.95;100.00
25560;BME280;13450;49.374;8.584;2022-12-29T08:22:07;99878.59;;;10.99;100.00
25560;BME280;13450;49.374;8.584;2022-12-29T08:24:33;99887.66;;;11.05;100.00
25560;BME280;13450;49.374;8.584;2022-12-29T08:26:58;99897.97;;;11.08;100.00
25560;BME280;13450;49.374;8.584;2022-12-29T08:29:23;99898.00;;;11.15;100.00
25560;BME280;13450;49.374;8.584;2022-12-29T08:31:49;99896.75;;;11.18;100.00
25560;BME280;13450;49.374;8.584;2022-12-29T08:34:14;99899.25;;;11.19;100.00
25560;BME280;13450;49.374;8.584;2022-12-29T08:36:41;99898.84;;;11.22;100.00
25560;BME280;13450;49.374;8.584;2022-12-29T08:39:06;99902.75;;;11.20;100.00
25560;BME280;13450;49.374;8.584;2022-12-29T08:41:32;99909.56;;;11.22;100.00
25560;BME280;13450;49.374;8.584;2022-12-29T08:43:57;99904.81;;;11.24;100.00
25560;BME280;13450;49.374;8.584;2022-12-29T08:46:24;99913.69;;;11.32;100.00
25560;BME280;13450;49.374;8.584;2022-12-29T08:48:52;99909.16;;;11.39;100.00
25560;BME280;13450;49.374;8.584;2022-12-29T08:51:17;99896.00;;;11.51;100.00
25560;BME280;13450;49.374;8.584;2022-12-29T08:53:44;99902.63;;;11.55;100.00
25560;BME280;13450;49.374;8.584;2022-12-29T08:56:10;99893.34;;;11.58;100.00
25560;BME280;13450;49.374;8.584;2022-12-29T08:58:37;99900.13;;;11.60;100.00
25560;BME280;13450;49.374;8.584;2022-12-29T09:01:02;99894.16;;;11.58;100.00
25560;BME280;13450;49.374;8.584;2022-12-29T09:03:27;99906.94;;;11.56;100.00
25560;BME280;13450;49.374;8.584;2022-12-29T09:05:54;99893.94;;;11.53;100.00
25560;BME280;13450;49.374;8.584;2022-12-29T09:08:23;99902.63;;;11.55;100.00
25560;BME280;13450;49.374;8.584;2022-12-29T09:10:48;99906.75;;;11.58;100.00
25560;BME280;13450;49.374;8.584;2022-12-29T09:13:15;99909.41;;;11.58;100.00
25560;BME280;13450;49.374;8.584;2022-12-29T09:15:42;99907.13;;;11.61;100.00
25560;BME280;13450;49.374;8.584;2022-12-29T09:18:09;99915.78;;;11.63;100.00
25560;BME280;13450;49.374;8.584;2022-12-29T09:20:35;99912.09;;;11.64;100.00
25560;BME280;13450;49.374;8.584;2022-12-29T09:23:00;99934.97;;;11.60;100.00
25560;BME280;13450;49.374;8.584;2022-12-29T09:25:26;99930.84;;;11.58;100.00
25560;BME280;13450;49.374;8.584;2022-12-29T09:27:54;99933.72;;;11.56;100.00
25560;BME280;13450;49.374;8.584;2022-12-29T09:30:21;99940.34;;;11.60;100.00
25560;BME280;13450;49.374;8.584;2022-12-29T09:32:48;99942.59;;;11.63;100.00
25560;BME280;13450;49.374;8.584;2022-12-29T09:35:14;99936.44;;;11.70;100.00
25560;BME280;13450;49.374;8.584;2022-12-29T09:37:39;99936.44;;;11.70;100.00
25560;BME280;13450;49.374;8.584;2022-12-29T09:40:06;99946.13;;;11.71;100.00
25560;BME280;13450;49.374;8.584;2022-12-29T09:45:16;99935.59;;;11.76;100.00
25560;BME280;13450;49.374;8.584;2022-12-29T09:47:44;99944.69;;;11.75;100.00
25560;BME280;13450;49.374;8.584;2022-12-29T09:50:26;99955.41;;;11.75;100.00
25560;BME280;13450;49.374;8.584;2022-12-29T09:52:55;99956.84;;;11.71;100.00
25560;BME280;13450;49.374;8.584;2022-12-29T09:55:47;99969.38;;;11.63;100.00
25560;BME280;13450;49.374;8.584;2022-12-29T10:00:50;99964.03;;;11.63;100.00
25560;BME280;13450;49.374;8.584;2022-12-29T10:03:21;99960.75;;;11.68;100.00
25560;BME280;13450;49.374;8.584;2022-12-29T10:08:40;99961.59;;;11.75;100.00
25560;BME280;13450;49.374;8.584;2022-12-29T10:11:22;99963.66;;;11.87;100.00
25560;BME280;13450;49.374;8.584;2022-12-29T10:16:41;99964.72;;;12.20;100.00
25560;BME280;13450;49.374;8.584;2022-12-29T10:19:26;99963.47;;;12.22;100.00
25560;BME280;13450;49.374;8.584;2022-12-29T10:24:28;99965.31;;;12.15;100.00
25560;BME280;13450;49.374;8.584;2022-12-29T10:26:57;99963.69;;;12.07;100.00
25560;BME280;13450;49.374;8.584;2022-12-29T10:29:27;99964.72;;;12.06;100.00
25560;BME280;13450;49.374;8.584;2022-12-29T10:32:04;99964.53;;;12.08;100.00
25560;BME280;13450;49.374;8.584;2022-12-29T10:34:37;99965.31;;;12.08;100.00
25560;BME280;13450;49.374;8.584;2022-12-29T10:37:11;99968.84;;;12.09;100.00
25560;BME280;13450;49.374;8.584;2022-12-29T10:39:42;99958.13;;;12.09;100.00
25560;BME280;13450;49.374;8.584;2022-12-29T10:44:47;99967.41;;;12.06;100.00
25560;BME280;13450;49.374;8.584;2022-12-29T10:47:16;99959.34;;;12.06;100.00
25560;BME280;13450;49.374;8.584;2022-12-29T10:49:47;99978.50;;;12.03;100.00
25560;BME280;13450;49.374;8.584;2022-12-29T10:52:14;99956.84;;;12.04;100.00
25560;BME280;13450;49.374;8.584;2022-12-29T10:54:49;99955.84;;;12.06;100.00
25560;BME280;13450;49.374;8.584;2022-12-29T10:57:34;99962.44;;;12.10;100.00
25560;BME280;13450;49.374;8.584;2022-12-29T11:00:01;99959.34;;;12.13;100.00
25560;BME280;13450;49.374;8.584;2022-12-29T11:02:41;99966.16;;;12.29;100.00
25560;BME280;13450;49.374;8.584;2022-12-29T11:08:02;99958.81;;;13.68;100.00
25560;BME280;13450;49.374;8.584;2022-12-29T11:13:11;99963.41;;;16.28;100.00
25560;BME280;13450;49.374;8.584;2022-12-29T11:15:40;99959.91;;;16.16;100.00
25560;BME280;13450;49.374;8.584;2022-12-29T11:18:35;99964.22;;;16.53;100.00
25560;BME280;13450;49.374;8.584;2022-12-29T11:21:25;99981.94;;;16.13;100.00
25560;BME280;13450;49.374;8.584;2022-12-29T11:23:56;99987.88;;;15.91;100.00
25560;BME280;13450;49.374;8.584;2022-12-29T11:26:26;99985.47;;;15.09;100.00
25560;BME280;13450;49.374;8.584;2022-12-29T11:31:43;99983.88;;;14.20;100.00
25560;BME280;13450;49.374;8.584;2022-12-29T11:34:17;99977.09;;;13.53;100.00
25560;BME280;13450;49.374;8.584;2022-12-29T11:36:42;99985.22;;;13.39;100.00
25560;BME280;13450;49.374;8.584;2022-12-29T11:39:29;99982.00;;;13.24;100.00
25560;BME280;13450;49.374;8.584;2022-12-29T11:41:56;99994.25;;;13.06;100.00
25560;BME280;13450;49.374;8.584;2022-12-29T11:44:22;99969.28;;;12.99;100.00
25560;BME280;13450;49.374;8.584;2022-12-29T11:46:50;99991.88;;;12.71;100.00
25560;BME280;13450;49.374;8.584;2022-12-29T11:49:21;99974.97;;;12.70;100.00
25560;BME280;13450;49.374;8.584;2022-12-29T11:51:49;99970.22;;;12.65;100.00
25560;BME280;13450;49.374;8.584;2022-12-29T11:54:22;99976.22;;;12.47;100.00
25560;BME280;13450;49.374;8.584;2022-12-29T11:56:49;99977.47;;;12.38;100.00
25560;BME280;13450;49.374;8.584;2022-12-29T12:02:00;99964.91;;;12.25;100.00
25560;BME280;13450;49.374;8.584;2022-12-29T12:04:30;99976.47;;;12.19;100.00
25560;BME280;13450;49.374;8.584;2022-12-29T12:07:11;99970.28;;;12.18;100.00
25560;BME280;13450;49.374;8.584;2022-12-29T12:12:28;99964.53;;;12.14;100.00
25560;BME280;13450;49.374;8.584;2022-12-29T12:14:56;99968.22;;;12.20;100.00
25560;BME280;13450;49.374;8.584;2022-12-29T12:18:00;99959.97;;;12.22;100.00
25560;BME280;13450;49.374;8.584;2022-12-29T12:20:39;99970.47;;;12.23;100.00
25560;BME280;13450;49.374;8.584;2022-12-29T12:26:11;99965.75;;;12.19;100.00
25560;BME280;13450;49.374;8.584;2022-12-29T12:28:42;99961.63;;;12.16;100.00
25560;BME280;13450;49.374;8.584;2022-12-29T12:31:18;99961.63;;;12.16;100.00
25560;BME280;13450;49.374;8.584;2022-12-29T12:33:48;99958.53;;;12.19;100.00
25560;BME280;13450;49.374;8.584;2022-12-29T12:39:16;99956.66;;;12.26;100.00
25560;BME280;13450;49.374;8.584;2022-12-29T12:50:46;99951.28;;;11.93;100.00
25560;BME280;13450;49.374;8.584;2022-12-29T12:53:33;99965.72;;;11.78;100.00
25560;BME280;13450;49.374;8.584;2022-12-29T12:59:09;99978.56;;;11.27;100.00
25560;BME280;13450;49.374;8.584;2022-12-29T13:04:48;99961.50;;;10.44;100.00
25560;BME280;13450;49.374;8.584;2022-12-29T13:13:45;99962.38;;;10.51;100.00
25560;BME280;13450;49.374;8.584;2022-12-29T13:16:20;99951.34;;;10.68;100.00
25560;BME280;13450;49.374;8.584;2022-12-29T13:19:02;99948.34;;;11.40;100.00
25560;BME280;13450;49.374;8.584;2022-12-29T13:22:02;99946.53;;;11.81;100.00
25560;BME280;13450;49.374;8.584;2022-12-29T13:27:22;99942.53;;;11.36;100.00
25560;BME280;13450;49.374;8.584;2022-12-29T13:36:04;99955.44;;;10.64;100.00
25560;BME280;13450;49.374;8.584;2022-12-29T13:38:46;99951.69;;;10.51;100.00
25560;BME280;13450;49.374;8.584;2022-12-29T13:41:19;99958.63;;;10.45;100.00
25560;BME280;13450;49.374;8.584;2022-12-29T13:43:50;99952.31;;;10.31;100.00
25560;BME280;13450;49.374;8.584;2022-12-29T13:46:18;99961.16;;;10.25;100.00
25560;BME280;13450;49.374;8.584;2022-12-29T13:48:51;99952.25;;;10.18;100.00
25560;BME280;13450;49.374;8.584;2022-12-29T13:51:20;99956.31;;;10.14;100.00
25560;BME280;13450;49.374;8.584;2022-12-29T13:59:46;99954.19;;;10.02;100.00
25560;BME280;13450;49.374;8.584;2022-12-29T14:02:21;99949.09;;;10.07;100.00
25560;BME280;13450;49.374;8.584;2022-12-29T14:05:03;99957.09;;;10.07;100.00
25560;BME280;13450;49.374;8.584;2022-12-29T14:07:29;99968.81;;;10.06;100.00
25560;BME280;13450;49.374;8.584;2022-12-29T14:10:00;99972.31;;;10.07;100.00
25560;BME280;13450;49.374;8.584;2022-12-29T14:12:40;99975.16;;;10.05;100.00
25560;BME280;13450;49.374;8.584;2022-12-29T14:17:35;99975.56;;;10.02;100.00
25560;BME280;13450;49.374;8.584;2022-12-29T14:20:01;99975.75;;;10.01;100.00
25560;BME280;13450;49.374;8.584;2022-12-29T14:22:27;99983.34;;;9.97;100.00
25560;BME280;13450;49.374;8.584;2022-12-29T14:24:53;99980.84;;;9.96;100.00
25560;BME280;13450;49.374;8.584;2022-12-29T14:29:48;99993.56;;;9.93;100.00
25560;BME280;13450;49.374;8.584;2022-12-29T14:34:53;100004.44;;;9.92;100.00
25560;BME280;13450;49.374;8.584;2022-12-29T14:37:32;99999.25;;;9.84;100.00
25560;BME280;13450;49.374;8.584;2022-12-29T14:42:48;100005.13;;;9.57;100.00
25560;BME280;13450;49.374;8.584;2022-12-29T14:47:50;99996.28;;;9.35;100.00
25560;BME280;13450;49.374;8.584;2022-12-29T14:52:57;100007.78;;;9.20;100.00
25560;BME280;13450;49.374;8.584;2022-12-29T14:55:58;99993.56;;;9.13;100.00
25560;BME280;13450;49.374;8.584;2022-12-29T14:58:29;100007.19;;;9.03;100.00
25560;BME280;13450;49.374;8.584;2022-12-29T15:00:56;100004.25;;;8.98;100.00
25560;BME280;13450;49.374;8.584;2022-12-29T15:08:23;100011.53;;;8.89;100.00
25560;BME280;13450;49.374;8.584;2022-12-29T15:11:13;100018.69;;;8.88;100.00
25560;BME280;13450;49.374;8.584;2022-12-29T15:13:41;100009.22;;;8.86;100.00